Strona główna
METAR-TAF:

METAR-TAF

Lotnisko :

Preston, Anglia

Szerokość geograficzna: 53-44-42N, Długość geograficzna: 2-53-02W, wysokość: 17 m

Aktualna obserwacja pogody

Raport powstał 31 minut temu, godzina 11:50 UTC
Wiatr 6 kt od południowo-południowy wschód
Temperatura 7°C
Wilgotność 87%
Ciśnienie 1019 hPa
Widzialność 10 km lub więcej
Mało chmury na wysokości 2000 ft
Przerywane chmury na wysokości 4900 ft

METAR: EGNO 271150Z 16006KT 9999 FEW020 BKN049 07/05 Q1019

czas: 12:21 (12:21 UTC)

Prognoza

Raport powstał 1 godzina i 26 minut temu, godzina 10:55 UTC
Prognoza ważna od 27 godzina 12 UTC do 27 godzina 19 UTC
Wiatr 4 kt od wschodnio-południowy wschód
Widzialność 10 km lub więcej
Przerywane chmury na wysokości 4500 ft
Prawdopodobieństwo 30% :
Przejściowo
od 27 godzina 12 UTC do 27 godzina 16 UTC
Widzialność: 9000 m
Przejściowo
od 27 godzina 16 UTC do 27 godzina 19 UTC
Widzialność: 4000 m
zamglenie

TAF: EGNO 271055Z 2712/2719 12004KT 9999 BKN045 PROB30 TEMPO 2712/2716 9000 TEMPO 2716/2719 4000 BR

Obserwacja i prognoza pogody dla ponad 4000 lotnisk (raport METAR i TAF).

Dostępne stacje oznaczono żółtymi i czerwonymi punktami na mapie.

Najedź kursorem aby zobaczyć nazwę stacji.

Kliknij aby zobaczyć obserwacje i prognozy pogody.

Aby zmienić mapę: kliknij na zielony przycisk z czarnym krzyżykiem, aby powiększyć; na zielony przycisk z myślnikiem, aby pomniejszyć; na zielone strzałki, aby przejść do map sąsiednich.


METAR-TAF: